createdAt,value
2022-12-09T00:01:37.920Z,100926.81
2022-12-09T00:04:06.319Z,100937.16
2022-12-09T00:06:34.448Z,100943.06
2022-12-09T00:09:03.836Z,100949.59
2022-12-09T00:11:31.708Z,100967.19
2022-12-09T00:14:00.994Z,100972.44
2022-12-09T00:16:28.911Z,100968.97
2022-12-09T00:18:57.899Z,100971.44
2022-12-09T00:21:28.081Z,100983.31
2022-12-09T00:23:57.768Z,100987.75
2022-12-09T00:26:29.419Z,100984.66
2022-12-09T00:28:57.769Z,100989.72
2022-12-09T00:31:28.489Z,100992.81
2022-12-09T00:33:58.842Z,100999.00
2022-12-09T00:36:27.670Z,101002.88
2022-12-09T00:38:56.414Z,100993.59
2022-12-09T00:41:24.748Z,100992.97
2022-12-09T00:43:54.394Z,100986.75
2022-12-09T00:46:22.756Z,100953.75
2022-12-09T00:48:50.570Z,100919.19
2022-12-09T00:51:20.870Z,100927.81
2022-12-09T00:53:48.696Z,100932.19
2022-12-09T00:56:16.553Z,100931.06
2022-12-09T00:58:44.518Z,100930.44
2022-12-09T01:01:13.683Z,100908.53
2022-12-09T01:03:41.767Z,100910.28
2022-12-09T01:06:11.340Z,100915.63
2022-12-09T01:08:40.115Z,100923.91
2022-12-09T01:11:13.025Z,100946.84
2022-12-09T01:13:41.331Z,100942.09
2022-12-09T01:16:17.356Z,100942.38
2022-12-09T01:18:46.069Z,100923.00
2022-12-09T01:21:14.031Z,100923.22
2022-12-09T01:23:42.544Z,100925.81
2022-12-09T01:26:10.786Z,100926.81
2022-12-09T01:28:40.916Z,100932.91
2022-12-09T01:31:10.868Z,100949.69
2022-12-09T01:33:40.075Z,100942.31
2022-12-09T01:36:10.701Z,100954.81
2022-12-09T01:38:38.964Z,100966.09
2022-12-09T01:41:07.122Z,100968.16
2022-12-09T01:43:35.700Z,100975.44
2022-12-09T01:46:03.540Z,100981.50
2022-12-09T01:48:33.862Z,100977.53
2022-12-09T01:51:08.785Z,100962.88
2022-12-09T01:53:39.319Z,100948.97
2022-12-09T01:56:12.204Z,100957.47
2022-12-09T01:58:40.365Z,100959.63
2022-12-09T02:01:08.530Z,100978.97
2022-12-09T02:03:36.494Z,100971.16
2022-12-09T02:06:05.973Z,100979.25
2022-12-09T02:08:34.046Z,100990.63
2022-12-09T02:11:11.268Z,101001.13
2022-12-09T02:13:48.491Z,101013.94
2022-12-09T02:16:20.349Z,100996.59
2022-12-09T02:18:56.183Z,100989.59
2022-12-09T02:21:33.484Z,101007.72
2022-12-09T02:24:06.586Z,100987.06
2022-12-09T02:26:42.646Z,100980.06
2022-12-09T02:29:36.210Z,100973.22
2022-12-09T02:32:28.664Z,100980.09
2022-12-09T02:35:03.242Z,100994.59
2022-12-09T02:37:39.617Z,100988.41
2022-12-09T02:40:12.325Z,100997.25
2022-12-09T02:42:42.600Z,100995.44
2022-12-09T02:45:12.992Z,100995.72
2022-12-09T02:47:45.493Z,100995.25
2022-12-09T02:50:17.238Z,100996.25
2022-12-09T02:52:47.273Z,100995.56
2022-12-09T02:55:17.781Z,100983.72
2022-12-09T02:57:45.631Z,100987.25
2022-12-09T03:00:16.413Z,100992.13
2022-12-09T03:02:46.981Z,100992.09
2022-12-09T03:05:24.662Z,100999.06
2022-12-09T03:08:01.375Z,101007.28
2022-12-09T03:10:34.340Z,100998.41
2022-12-09T03:13:07.915Z,101009.78
2022-12-09T03:15:38.911Z,101017.44
2022-12-09T03:18:12.596Z,101026.13
2022-12-09T03:20:44.064Z,101027.63
2022-12-09T03:23:16.483Z,101040.31
2022-12-09T03:25:47.990Z,101032.34
2022-12-09T03:28:19.912Z,101035.09
2022-12-09T03:30:48.442Z,101041.53
2022-12-09T03:33:19.219Z,101027.88
2022-12-09T03:35:51.854Z,101017.13
2022-12-09T03:38:22.299Z,101049.09
2022-12-09T03:40:56.412Z,101041.78
2022-12-09T03:43:26.248Z,101035.44
2022-12-09T03:45:55.626Z,101032.13
2022-12-09T03:48:24.986Z,101018.03
2022-12-09T03:50:59.522Z,101018.25
2022-12-09T03:53:34.850Z,101026.34
2022-12-09T03:56:08.578Z,101007.81
2022-12-09T03:58:40.462Z,100996.56
2022-12-09T04:01:09.644Z,100985.84
2022-12-09T04:03:38.891Z,100994.00
2022-12-09T04:06:08.927Z,100992.66
2022-12-09T04:08:37.112Z,100983.75
2022-12-09T04:11:04.951Z,100984.09
2022-12-09T04:13:32.738Z,100997.56
2022-12-09T04:16:00.621Z,101003.19
2022-12-09T04:18:28.849Z,101008.66
2022-12-09T04:20:56.985Z,101008.38
2022-12-09T04:23:26.260Z,101014.09
2022-12-09T04:25:54.257Z,100996.81
2022-12-09T04:28:22.282Z,100985.50
2022-12-09T04:30:50.476Z,100982.16
2022-12-09T04:33:18.616Z,100975.31
2022-12-09T04:35:46.389Z,100984.63
2022-12-09T04:38:14.903Z,100970.31
2022-12-09T04:40:44.190Z,100959.53
2022-12-09T04:43:12.059Z,100946.28
2022-12-09T04:45:39.808Z,100933.22
2022-12-09T04:48:07.876Z,100950.59
2022-12-09T04:50:35.836Z,100961.13
2022-12-09T04:53:03.809Z,100952.75
2022-12-09T04:55:31.577Z,100951.56
2022-12-09T04:58:00.684Z,100958.34
2022-12-09T05:00:28.564Z,100954.41
2022-12-09T05:02:56.416Z,100926.59
2022-12-09T05:05:24.952Z,100915.09
2022-12-09T05:07:53.314Z,100915.41
2022-12-09T05:10:21.536Z,100914.25
2022-12-09T05:12:49.721Z,100898.34
2022-12-09T05:15:19.147Z,100903.13
2022-12-09T05:17:47.026Z,100904.97
2022-12-09T05:20:15.721Z,100920.47
2022-12-09T05:22:44.094Z,100926.25
2022-12-09T05:25:12.127Z,100922.56
2022-12-09T05:27:40.052Z,100960.88
2022-12-09T05:30:09.830Z,100941.31
2022-12-09T05:32:39.291Z,100917.03
2022-12-09T05:35:07.610Z,100912.88
2022-12-09T05:37:35.670Z,100924.75
2022-12-09T05:40:03.874Z,100935.38
2022-12-09T05:42:36.419Z,100954.94
2022-12-09T05:45:08.322Z,100960.03
2022-12-09T05:47:36.972Z,100962.47
2022-12-09T05:50:08.879Z,100955.03
2022-12-09T05:52:37.809Z,100950.94
2022-12-09T05:55:06.941Z,100953.31
2022-12-09T05:57:36.042Z,100934.84
2022-12-09T06:00:06.793Z,100906.84
2022-12-09T06:02:35.202Z,100905.41
2022-12-09T06:05:04.069Z,100908.81
2022-12-09T06:07:33.889Z,100919.69
2022-12-09T06:10:02.124Z,100946.25
2022-12-09T06:12:30.464Z,100949.69
2022-12-09T06:14:58.325Z,100932.06
2022-12-09T06:17:26.260Z,100932.41
2022-12-09T06:19:54.361Z,100915.72
2022-12-09T06:22:22.442Z,100920.69
2022-12-09T06:24:56.931Z,100931.63
2022-12-09T06:27:25.252Z,100944.06
2022-12-09T06:29:53.516Z,100930.50
2022-12-09T06:32:21.721Z,100940.22
2022-12-09T06:34:50.131Z,100944.50
2022-12-09T06:37:18.813Z,100938.66
2022-12-09T06:39:47.930Z,100923.00
2022-12-09T06:42:17.349Z,100933.47
2022-12-09T06:44:45.473Z,100946.47
2022-12-09T06:47:13.404Z,100950.88
2022-12-09T06:49:41.233Z,100953.47
2022-12-09T06:52:09.149Z,100965.22
2022-12-09T06:54:37.105Z,100970.94
2022-12-09T06:57:05.090Z,100983.31
2022-12-09T06:59:34.629Z,100996.25
2022-12-09T07:02:02.814Z,101002.16
2022-12-09T07:04:31.229Z,101021.94
2022-12-09T07:06:59.268Z,101022.59
2022-12-09T07:09:27.720Z,101028.59
2022-12-09T07:11:55.875Z,101028.50
2022-12-09T07:14:23.601Z,101036.03
2022-12-09T07:16:53.669Z,101037.53
2022-12-09T07:19:23.978Z,101043.34
2022-12-09T07:21:52.594Z,101055.06
2022-12-09T07:24:21.319Z,101056.13
2022-12-09T07:26:49.558Z,101039.00
2022-12-09T07:29:18.034Z,101030.59
2022-12-09T07:31:47.657Z,101007.41
2022-12-09T07:34:17.465Z,101008.06
2022-12-09T07:36:45.439Z,100996.84
2022-12-09T07:39:14.700Z,100995.22
2022-12-09T07:41:43.389Z,100999.81
2022-12-09T07:44:12.742Z,100972.28
2022-12-09T07:46:41.038Z,100953.97
2022-12-09T07:49:09.427Z,100956.38
2022-12-09T07:51:39.512Z,100958.38
2022-12-09T07:54:08.099Z,100955.44
2022-12-09T07:56:35.896Z,100944.78
2022-12-09T07:59:07.151Z,100941.56
2022-12-09T08:01:36.440Z,100953.19
2022-12-09T08:04:06.450Z,100960.06
2022-12-09T08:06:35.231Z,100967.41
2022-12-09T08:09:07.120Z,100976.50
2022-12-09T08:11:35.971Z,100987.09
2022-12-09T08:14:12.251Z,100961.38
2022-12-09T08:16:42.019Z,100949.19
2022-12-09T08:19:10.536Z,100963.84
2022-12-09T08:21:39.854Z,100968.84
2022-12-09T08:24:11.101Z,100954.91
2022-12-09T08:26:39.972Z,100956.97
2022-12-09T08:29:09.978Z,100952.47
2022-12-09T08:31:41.609Z,100952.56
2022-12-09T08:34:10.384Z,100944.63
2022-12-09T08:36:39.264Z,100961.69
2022-12-09T08:39:07.782Z,100973.47
2022-12-09T08:41:39.122Z,100983.00
2022-12-09T08:44:09.706Z,100989.84
2022-12-09T08:46:39.434Z,100988.56
2022-12-09T08:49:08.494Z,100976.41
2022-12-09T08:51:37.435Z,100977.16
2022-12-09T08:54:06.872Z,100982.00
2022-12-09T08:56:36.704Z,100971.78
2022-12-09T08:59:06.018Z,100986.63
2022-12-09T09:01:35.770Z,100992.06
2022-12-09T09:04:08.127Z,100993.91
2022-12-09T09:06:36.729Z,100993.00
2022-12-09T09:09:05.828Z,100976.63
2022-12-09T09:11:34.601Z,100976.28
2022-12-09T09:14:06.661Z,100980.63
2022-12-09T09:16:35.524Z,100977.13
2022-12-09T09:19:05.833Z,100983.59
2022-12-09T09:21:34.959Z,100988.00
2022-12-09T09:24:03.894Z,101002.50
2022-12-09T09:26:31.738Z,100986.47
2022-12-09T09:28:59.851Z,100983.53
2022-12-09T09:31:29.004Z,100998.28
2022-12-09T09:33:57.024Z,101002.28
2022-12-09T09:36:26.392Z,101010.28
2022-12-09T09:38:56.113Z,101016.31
2022-12-09T09:41:32.520Z,101008.31
2022-12-09T09:44:01.250Z,101020.50
2022-12-09T09:46:38.278Z,101028.66
2022-12-09T09:49:12.217Z,101027.34
2022-12-09T09:51:40.701Z,101033.34
2022-12-09T09:54:10.951Z,101024.38
2022-12-09T09:56:43.816Z,101014.78
2022-12-09T09:59:21.321Z,101031.97
2022-12-09T10:02:01.362Z,101026.63
2022-12-09T10:04:53.640Z,101011.97
2022-12-09T10:07:26.370Z,101004.47
2022-12-09T10:10:04.142Z,101018.47
2022-12-09T10:12:40.495Z,101027.56
2022-12-09T10:15:13.357Z,101021.94
2022-12-09T10:17:51.188Z,101023.63
2022-12-09T10:20:22.446Z,101001.28
2022-12-09T10:22:54.940Z,100990.84
2022-12-09T10:25:25.898Z,100964.53
2022-12-09T10:28:00.965Z,100956.13
2022-12-09T10:30:36.242Z,100938.97
2022-12-09T10:33:11.894Z,100921.97
2022-12-09T10:35:39.868Z,100917.31
2022-12-09T10:38:11.175Z,100924.66
2022-12-09T10:40:50.025Z,100906.00
2022-12-09T10:43:39.008Z,100914.69
2022-12-09T10:46:19.674Z,100917.22
2022-12-09T10:48:57.590Z,100941.34
2022-12-09T10:51:28.857Z,100937.88
2022-12-09T10:53:59.890Z,100932.00
2022-12-09T10:56:31.528Z,100944.84
2022-12-09T10:59:18.974Z,100951.09
2022-12-09T11:01:54.641Z,100959.97
2022-12-09T11:04:27.125Z,100972.16
2022-12-09T11:07:00.060Z,100960.91
2022-12-09T11:09:31.225Z,100959.63
2022-12-09T11:12:00.444Z,100952.53
2022-12-09T11:14:34.992Z,100967.91
2022-12-09T11:17:15.503Z,100963.91
2022-12-09T11:19:47.972Z,100953.81
2022-12-09T11:22:29.323Z,100958.59
2022-12-09T11:25:10.933Z,100952.50
2022-12-09T11:27:42.097Z,100956.13
2022-12-09T11:30:15.632Z,100956.72
2022-12-09T11:33:00.190Z,100968.69
2022-12-09T11:35:34.955Z,100974.31
2022-12-09T11:38:16.102Z,100971.19
2022-12-09T11:40:44.544Z,100968.78
2022-12-09T11:43:12.396Z,100973.88
2022-12-09T11:45:41.915Z,100955.63
2022-12-09T11:48:30.322Z,100934.16
2022-12-09T11:51:03.416Z,100923.81
2022-12-09T11:53:33.000Z,100923.69
2022-12-09T11:56:05.504Z,100919.06
2022-12-09T11:58:40.320Z,100905.84
2022-12-09T12:01:12.967Z,100916.63
2022-12-09T12:03:47.281Z,100921.97
2022-12-09T12:06:22.594Z,100888.94
2022-12-09T12:08:55.571Z,100865.63
2022-12-09T12:11:28.931Z,100854.69
2022-12-09T12:14:04.713Z,100859.53
2022-12-09T12:16:39.535Z,100850.16
2022-12-09T12:19:17.677Z,100848.94
2022-12-09T12:22:08.951Z,100824.94
2022-12-09T12:25:11.030Z,100792.34
2022-12-09T12:27:59.160Z,100777.00
2022-12-09T12:30:34.665Z,100744.69
2022-12-09T12:36:13.478Z,100752.16
2022-12-09T12:38:59.341Z,100752.69
2022-12-09T12:41:32.397Z,100740.66
2022-12-09T12:44:27.168Z,100704.63
2022-12-09T12:47:14.915Z,100682.44
2022-12-09T12:50:11.821Z,100682.91
2022-12-09T12:52:56.949Z,100653.47
2022-12-09T12:55:39.262Z,100633.94
2022-12-09T12:58:15.373Z,100622.75
2022-12-09T13:00:53.780Z,100615.06
2022-12-09T13:03:26.448Z,100609.03
2022-12-09T13:05:58.262Z,100619.91
2022-12-09T13:08:34.156Z,100592.41
2022-12-09T13:11:11.142Z,100588.53
2022-12-09T13:13:43.533Z,100567.38
2022-12-09T13:16:28.558Z,100554.75
2022-12-09T13:19:12.490Z,100542.09
2022-12-09T13:21:40.813Z,100559.44
2022-12-09T13:24:22.704Z,100580.00
2022-12-09T13:26:57.767Z,100584.47
2022-12-09T13:29:35.756Z,100570.53
2022-12-09T13:32:17.716Z,100572.16
2022-12-09T13:34:51.482Z,100559.78
2022-12-09T13:37:59.681Z,100564.91
2022-12-09T13:40:35.269Z,100613.41
2022-12-09T13:43:13.145Z,100623.75
2022-12-09T13:45:51.842Z,100621.72
2022-12-09T13:48:45.822Z,100644.06
2022-12-09T13:51:14.726Z,100645.44
2022-12-09T13:53:47.757Z,100629.19
2022-12-09T13:56:24.136Z,100624.38
2022-12-09T13:59:28.495Z,100643.41
2022-12-09T14:02:01.418Z,100648.97
2022-12-09T14:04:34.815Z,100650.91
2022-12-09T14:07:17.261Z,100641.41
2022-12-09T14:09:50.755Z,100653.25
2022-12-09T14:13:06.158Z,100668.41
2022-12-09T14:15:39.983Z,100675.78
2022-12-09T14:18:30.845Z,100704.22
2022-12-09T14:21:27.214Z,100690.75
2022-12-09T14:24:35.507Z,100686.78
2022-12-09T14:27:15.631Z,100673.00
2022-12-09T14:30:01.799Z,100653.22
2022-12-09T14:32:33.585Z,100625.84
2022-12-09T14:35:06.088Z,100583.38
2022-12-09T14:37:51.901Z,100562.19
2022-12-09T14:40:30.982Z,100541.94
2022-12-09T14:43:14.670Z,100533.53
2022-12-09T14:45:49.442Z,100540.84
2022-12-09T14:48:24.978Z,100596.41
2022-12-09T14:51:08.417Z,100602.63
2022-12-09T14:53:38.594Z,100585.25
2022-12-09T14:56:07.038Z,100569.19
2022-12-09T14:58:35.239Z,100574.31
2022-12-09T15:01:05.559Z,100579.34
2022-12-09T15:03:42.989Z,100617.69
2022-12-09T15:06:18.749Z,100606.81
2022-12-09T15:08:47.512Z,100636.63
2022-12-09T15:11:17.958Z,100646.41
2022-12-09T15:13:51.309Z,100650.00
2022-12-09T15:16:21.383Z,100645.59
2022-12-09T15:18:52.643Z,100644.25
2022-12-09T15:21:31.466Z,100629.16
2022-12-09T15:24:00.414Z,100634.41
2022-12-09T15:26:30.317Z,100650.25
2022-12-09T15:28:59.458Z,100638.00
2022-12-09T15:31:28.867Z,100638.97
2022-12-09T15:33:59.803Z,100652.09
2022-12-09T15:36:31.160Z,100668.66
2022-12-09T15:39:02.576Z,100678.84
2022-12-09T15:41:51.728Z,100695.53
2022-12-09T15:44:23.030Z,100703.47
2022-12-09T15:46:53.004Z,100716.91
2022-12-09T15:49:27.849Z,100714.59
2022-12-09T15:51:57.265Z,100717.50
2022-12-09T15:54:29.138Z,100721.50
2022-12-09T15:56:59.651Z,100733.03
2022-12-09T15:59:31.391Z,100742.09
2022-12-09T16:02:00.499Z,100733.41
2022-12-09T16:04:31.800Z,100713.16
2022-12-09T16:07:05.948Z,100728.28
2022-12-09T16:09:33.739Z,100714.91
2022-12-09T16:12:01.723Z,100720.59
2022-12-09T16:14:42.841Z,100746.69
2022-12-09T16:17:22.016Z,100746.16
2022-12-09T16:19:51.774Z,100736.41
2022-12-09T16:22:25.220Z,100749.91
2022-12-09T16:25:15.140Z,100749.97
2022-12-09T16:27:46.312Z,100748.38
2022-12-09T16:30:16.459Z,100746.75
2022-12-09T16:32:45.729Z,100738.78
2022-12-09T16:35:22.365Z,100712.34
2022-12-09T16:38:17.140Z,100710.22
2022-12-09T16:41:12.759Z,100704.41
2022-12-09T16:43:58.471Z,100698.97
2022-12-09T16:46:37.330Z,100706.72
2022-12-09T16:49:05.406Z,100711.97
2022-12-09T16:51:34.554Z,100730.81
2022-12-09T16:54:02.809Z,100732.69
2022-12-09T16:56:32.817Z,100752.41
2022-12-09T16:59:00.794Z,100764.19
2022-12-09T17:01:33.915Z,100776.59
2022-12-09T17:04:05.137Z,100790.78
2022-12-09T17:06:34.215Z,100811.59
2022-12-09T17:09:02.003Z,100813.47
2022-12-09T17:11:29.727Z,100806.47
2022-12-09T17:13:57.557Z,100816.31
2022-12-09T17:16:26.808Z,100821.38
2022-12-09T17:18:54.849Z,100820.53
2022-12-09T17:21:22.647Z,100819.19
2022-12-09T17:23:51.789Z,100804.06
2022-12-09T17:26:21.147Z,100806.75
2022-12-09T17:28:49.863Z,100818.75
2022-12-09T17:31:19.437Z,100815.44
2022-12-09T17:33:47.599Z,100811.56
2022-12-09T17:36:17.861Z,100823.28
2022-12-09T17:38:46.088Z,100820.34
2022-12-09T17:41:20.498Z,100834.03
2022-12-09T17:43:48.598Z,100825.16
2022-12-09T17:46:17.324Z,100832.34
2022-12-09T17:48:45.229Z,100840.13
2022-12-09T17:51:15.170Z,100851.25
2022-12-09T17:53:43.905Z,100852.28
2022-12-09T17:56:13.572Z,100832.63
2022-12-09T17:58:43.462Z,100837.06
2022-12-09T18:01:15.141Z,100855.03
2022-12-09T18:04:02.639Z,100853.75
2022-12-09T18:06:34.320Z,100849.75
2022-12-09T18:09:03.667Z,100844.09
2022-12-09T18:11:31.463Z,100838.63
2022-12-09T18:14:01.050Z,100837.72
2022-12-09T18:16:28.997Z,100846.44
2022-12-09T18:18:56.981Z,100850.50
2022-12-09T18:21:24.810Z,100860.47
2022-12-09T18:23:52.562Z,100873.88
2022-12-09T18:26:21.126Z,100881.13
2022-12-09T18:28:54.559Z,100881.59
2022-12-09T18:31:24.545Z,100871.41
2022-12-09T18:33:53.014Z,100864.81
2022-12-09T18:36:22.810Z,100855.34
2022-12-09T18:38:51.003Z,100860.56
2022-12-09T18:41:20.722Z,100868.59
2022-12-09T18:43:51.009Z,100855.28
2022-12-09T18:46:25.148Z,100857.69
2022-12-09T18:48:58.577Z,100868.31
2022-12-09T18:51:27.425Z,100861.00
2022-12-09T18:53:55.256Z,100862.88
2022-12-09T18:56:22.971Z,100879.06
2022-12-09T18:59:05.980Z,100879.28
2022-12-09T19:01:34.356Z,100872.94
2022-12-09T19:04:05.056Z,100868.81
2022-12-09T19:06:34.819Z,100877.59
2022-12-09T19:09:05.017Z,100885.22
2022-12-09T19:11:34.391Z,100909.56
2022-12-09T19:14:02.787Z,100912.91
2022-12-09T19:16:31.235Z,100899.56
2022-12-09T19:19:05.525Z,100896.44
2022-12-09T19:21:38.783Z,100874.34
2022-12-09T19:24:07.492Z,100871.84
2022-12-09T19:26:37.446Z,100858.81
2022-12-09T19:29:08.029Z,100857.94
2022-12-09T19:31:37.623Z,100867.22
2022-12-09T19:34:09.009Z,100852.88
2022-12-09T19:36:38.283Z,100830.44
2022-12-09T19:39:09.218Z,100823.41
2022-12-09T19:41:37.744Z,100834.31
2022-12-09T19:44:06.342Z,100862.59
2022-12-09T19:46:34.864Z,100873.28
2022-12-09T19:49:02.650Z,100887.59
2022-12-09T19:51:30.548Z,100892.59
2022-12-09T19:54:01.507Z,100880.22
2022-12-09T19:56:29.732Z,100871.59
2022-12-09T19:58:58.227Z,100884.81
2022-12-09T20:01:27.515Z,100863.53
2022-12-09T20:04:05.274Z,100820.09
2022-12-09T20:06:42.187Z,100821.22
2022-12-09T20:09:13.971Z,100823.91
2022-12-09T20:11:42.757Z,100838.16
2022-12-09T20:14:13.869Z,100816.38
2022-12-09T20:16:44.685Z,100810.97
2022-12-09T20:19:14.510Z,100823.16
2022-12-09T20:21:42.363Z,100839.69
2022-12-09T20:24:12.693Z,100832.63
2022-12-09T20:26:40.521Z,100844.66
2022-12-09T20:29:10.885Z,100837.16
2022-12-09T20:31:40.113Z,100826.22
2022-12-09T20:34:12.029Z,100846.41
2022-12-09T20:36:42.108Z,100853.06
2022-12-09T20:39:15.096Z,100869.47
2022-12-09T20:41:44.535Z,100877.94
2022-12-09T20:44:13.617Z,100897.22
2022-12-09T20:46:45.424Z,100882.38
2022-12-09T20:49:13.184Z,100864.34
2022-12-09T20:51:43.989Z,100863.25
2022-12-09T20:54:13.939Z,100849.00
2022-12-09T20:56:42.284Z,100838.44
2022-12-09T20:59:11.595Z,100912.25
2022-12-09T21:01:39.755Z,100877.97
2022-12-09T21:04:08.479Z,100761.72
2022-12-09T21:06:39.208Z,100723.63
2022-12-09T21:09:10.113Z,100717.41
2022-12-09T21:11:39.714Z,100733.63
2022-12-09T21:14:08.046Z,100749.06
2022-12-09T21:16:39.709Z,100786.03
2022-12-09T21:19:10.281Z,100774.00
2022-12-09T21:21:40.378Z,100785.91
2022-12-09T21:24:10.343Z,100787.25
2022-12-09T21:26:39.741Z,100785.31
2022-12-09T21:29:08.298Z,100797.00
2022-12-09T21:31:38.485Z,100801.59
2022-12-09T21:34:07.497Z,100796.06
2022-12-09T21:36:36.856Z,100780.09
2022-12-09T21:39:05.955Z,100789.53
2022-12-09T21:41:35.529Z,100820.94
2022-12-09T21:44:05.802Z,100833.41
2022-12-09T21:46:36.031Z,100806.13
2022-12-09T21:49:05.787Z,100793.25
2022-12-09T21:51:34.796Z,100805.00
2022-12-09T21:54:02.968Z,100815.72
2022-12-09T21:56:32.772Z,100795.47
2022-12-09T21:59:01.431Z,100779.91
2022-12-09T22:01:32.279Z,100796.56
2022-12-09T22:04:01.853Z,100804.50
2022-12-09T22:06:30.413Z,100797.75
2022-12-09T22:09:00.116Z,100791.78
2022-12-09T22:11:29.777Z,100792.34
2022-12-09T22:13:58.940Z,100792.03
2022-12-09T22:16:29.738Z,100775.38
2022-12-09T22:19:00.834Z,100779.03
2022-12-09T22:21:30.837Z,100784.25
2022-12-09T22:24:01.791Z,100773.63
2022-12-09T22:26:30.321Z,100770.59
2022-12-09T22:29:00.351Z,100765.00
2022-12-09T22:31:30.035Z,100760.84
2022-12-09T22:34:02.115Z,100747.28
2022-12-09T22:36:30.042Z,100734.19
2022-12-09T22:38:57.971Z,100731.22
2022-12-09T22:41:27.490Z,100741.66
2022-12-09T22:43:56.479Z,100749.69
2022-12-09T22:46:26.072Z,100754.72
2022-12-09T22:48:54.277Z,100778.28
2022-12-09T22:51:25.302Z,100796.78
2022-12-09T22:53:55.070Z,100796.34
2022-12-09T22:56:23.757Z,100781.44
2022-12-09T22:58:51.972Z,100763.31
2022-12-09T23:01:23.347Z,100767.28
2022-12-09T23:03:51.274Z,100765.28
2022-12-09T23:06:19.088Z,100743.28
2022-12-09T23:08:48.822Z,100752.34
2022-12-09T23:11:19.248Z,100747.56
2022-12-09T23:13:47.170Z,100732.66
2022-12-09T23:16:17.227Z,100708.25
2022-12-09T23:18:45.219Z,100701.22
2022-12-09T23:21:14.611Z,100706.69
2022-12-09T23:23:42.855Z,100726.94
2022-12-09T23:26:15.059Z,100732.03
2022-12-09T23:28:45.260Z,100741.53
2022-12-09T23:31:14.739Z,100730.06
2022-12-09T23:33:45.131Z,100721.25
2022-12-09T23:36:16.438Z,100720.75
2022-12-09T23:38:44.552Z,100717.88
2022-12-09T23:41:13.622Z,100735.25
2022-12-09T23:43:41.641Z,100754.53
2022-12-09T23:46:15.635Z,100758.06
2022-12-09T23:48:44.179Z,100753.09
2022-12-09T23:51:13.785Z,100729.66
2022-12-09T23:53:42.506Z,100741.59
2022-12-09T23:56:13.908Z,100756.66
2022-12-09T23:58:41.764Z,100738.75
